Time;durP1;ratioP1;P1;durP2;ratioP2;P2;SDS_P1;SDS_P2;PMS_P1;PMS_P2;Temp;Humidity;BMP_temperature;BMP_pressure;BME280_temperature;BME280_humidity;BME280_pressure;Samples;Min_cycle;Max_cycle;Signal;HPM_P1;HPM_P2
2023/12/12 00:00:19;;;;;;;17.50;3.47;;;;;;;;;;4984043;28;20517;-50
2023/12/12 00:02:47;;;;;;;20.92;3.30;;;;;;;;;;4984291;28;20055;-47
2023/12/12 00:05:16;;;;;;;21.63;4.30;;;;;;;;;;4999741;28;20048;-49
2023/12/12 00:07:44;;;;;;;19.45;3.83;;;;;;;;;;4984300;28;20034;-48
2023/12/12 00:10:12;;;;;;;21.98;3.92;;;;;;;;;;4992380;28;20037;-50
2023/12/12 00:12:39;;;;;;;20.73;3.87;;;;;;;;;;4992181;28;20045;-48
2023/12/12 00:15:07;;;;;;;25.00;3.95;;;;;;;;;;4989821;28;20046;-51
2023/12/12 00:17:35;;;;;;;21.02;4.70;;;;;;;;;;4995767;28;20683;-50
2023/12/12 00:20:04;;;;;;;19.27;3.90;;;;;;;;;;4985224;28;20045;-51
2023/12/12 00:22:33;;;;;;;18.25;4.28;;;;;;;;;;4990281;28;20685;-51
2023/12/12 00:25:00;;;;;;;20.30;4.37;;;;;;;;;;4992708;28;20159;-50
2023/12/12 00:27:28;;;;;;;16.92;3.75;;;;;;;;;;4974376;28;20044;-47
2023/12/12 00:29:56;;;;;;;19.95;3.55;;;;;;;;;;4995695;28;20099;-46
2023/12/12 00:32:24;;;;;;;18.55;4.00;;;;;;;;;;4980734;28;20042;-47
2023/12/12 00:34:55;;;;;;;20.70;3.25;;;;;;;;;;4998624;28;20053;-49
2023/12/12 00:37:23;;;;;;;25.17;4.00;;;;;;;;;;4993796;28;20426;-48
2023/12/12 00:39:53;;;;;;;17.35;3.97;;;;;;;;;;4988932;28;20061;-50
2023/12/12 00:42:20;;;;;;;21.58;4.97;;;;;;;;;;4985414;28;20112;-50
2023/12/12 00:44:48;;;;;;;24.38;4.78;;;;;;;;;;4998362;28;20095;-47
2023/12/12 00:47:16;;;;;;;21.63;3.90;;;;;;;;;;4988041;28;20046;-48
2023/12/12 00:49:43;;;;;;;20.13;4.00;;;;;;;;;;4992583;28;20045;-46
2023/12/12 00:52:11;;;;;;;21.23;4.05;;;;;;;;;;4990023;28;20069;-52
2023/12/12 00:54:39;;;;;;;17.30;3.45;;;;;;;;;;4996549;28;20754;-46
2023/12/12 00:57:08;;;;;;;20.98;4.38;;;;;;;;;;4991699;28;20037;-47
2023/12/12 00:59:36;;;;;;;17.45;3.25;;;;;;;;;;4982779;28;20052;-50
2023/12/12 01:02:04;;;;;;;22.93;3.20;;;;;;;;;;4991830;28;20067;-47
2023/12/12 01:04:33;;;;;;;20.83;3.92;;;;;;;;;;5003713;28;20143;-50
2023/12/12 01:07:01;;;;;;;20.50;4.03;;;;;;;;;;4989707;28;20064;-50
2023/12/12 01:09:29;;;;;;;19.00;3.53;;;;;;;;;;4994415;28;20060;-49
2023/12/12 01:11:56;;;;;;;18.17;3.85;;;;;;;;;;4988565;28;20045;-48
2023/12/12 01:14:25;;;;;;;18.17;4.53;;;;;;;;;;4997208;28;20436;-46
2023/12/12 01:16:53;;;;;;;20.45;4.15;;;;;;;;;;4994576;28;20041;-52
2023/12/12 01:19:21;;;;;;;25.42;4.72;;;;;;;;;;4996510;28;20444;-46
2023/12/12 01:21:49;;;;;;;25.55;4.65;;;;;;;;;;4983605;28;20721;-48
2023/12/12 01:24:16;;;;;;;18.90;3.47;;;;;;;;;;4997208;28;20368;-50
2023/12/12 01:26:44;;;;;;;19.27;3.33;;;;;;;;;;4988472;28;20686;-49
2023/12/12 01:29:16;;;;;;;19.27;2.97;;;;;;;;;;4997897;28;20037;-47
2023/12/12 01:31:45;;;;;;;17.65;2.72;;;;;;;;;;4981972;28;20038;-49
2023/12/12 01:34:12;;;;;;;20.95;3.80;;;;;;;;;;4991638;28;20042;-47
2023/12/12 01:36:40;;;;;;;15.40;2.75;;;;;;;;;;4991333;28;20041;-50
2023/12/12 01:39:08;;;;;;;13.03;2.90;;;;;;;;;;4999554;28;20040;-47
2023/12/12 01:41:36;;;;;;;18.23;2.65;;;;;;;;;;4985548;28;20064;-50
2023/12/12 01:44:04;;;;;;;15.13;2.13;;;;;;;;;;4992174;28;20033;-49
2023/12/12 01:46:33;;;;;;;13.15;1.67;;;;;;;;;;4995853;28;20591;-49
2023/12/12 01:49:02;;;;;;;11.25;2.63;;;;;;;;;;4993802;28;20069;-46
2023/12/12 01:51:30;;;;;;;13.33;2.47;;;;;;;;;;4988037;28;20345;-48
2023/12/12 01:53:59;;;;;;;12.65;1.88;;;;;;;;;;4986944;28;20746;-48
2023/12/12 01:56:28;;;;;;;11.75;1.42;;;;;;;;;;4999022;28;20061;-48
2023/12/12 01:58:57;;;;;;;11.45;1.95;;;;;;;;;;4978676;28;20042;-49
2023/12/12 02:01:26;;;;;;;9.38;1.80;;;;;;;;;;4994553;28;20037;-49
2023/12/12 02:03:56;;;;;;;9.63;1.93;;;;;;;;;;4983733;28;20552;-50
2023/12/12 02:06:28;;;;;;;11.23;1.50;;;;;;;;;;4957236;28;20053;-46
2023/12/12 02:09:13;;;;;;;11.77;2.10;;;;;;;;;;4972409;28;20213;-47
2023/12/12 02:11:40;;;;;;;12.88;2.00;;;;;;;;;;4993551;28;20038;-49
2023/12/12 02:14:10;;;;;;;12.13;2.20;;;;;;;;;;4981850;28;20045;-46
2023/12/12 02:16:39;;;;;;;7.40;1.10;;;;;;;;;;4993153;28;20041;-47
2023/12/12 02:19:07;;;;;;;7.00;1.10;;;;;;;;;;4990658;28;20042;-47
2023/12/12 02:21:36;;;;;;;6.45;1.05;;;;;;;;;;4990981;28;20407;-49
2023/12/12 02:24:04;;;;;;;8.13;0.98;;;;;;;;;;4997732;28;20112;-48
2023/12/12 02:26:32;;;;;;;3.85;0.60;;;;;;;;;;4984928;28;20037;-47
2023/12/12 02:29:00;;;;;;;6.03;0.60;;;;;;;;;;4983004;28;20041;-47
2023/12/12 02:31:27;;;;;;;4.95;0.60;;;;;;;;;;4992551;28;20056;-50
2023/12/12 02:33:55;;;;;;;4.75;0.40;;;;;;;;;;4975455;28;20041;-48
2023/12/12 02:36:23;;;;;;;4.35;0.50;;;;;;;;;;5001452;28;20147;-48
2023/12/12 02:38:53;;;;;;;3.80;0.40;;;;;;;;;;5000602;28;21711;-46
2023/12/12 02:41:22;;;;;;;2.10;0.40;;;;;;;;;;4988867;28;20152;-48
2023/12/12 02:43:54;;;;;;;3.55;0.20;;;;;;;;;;4998682;28;20056;-48
2023/12/12 02:46:22;;;;;;;3.15;0.30;;;;;;;;;;4999768;28;20119;-50
2023/12/12 02:48:50;;;;;;;5.95;0.35;;;;;;;;;;4994450;28;20120;-49
2023/12/12 02:51:17;;;;;;;3.53;0.32;;;;;;;;;;5004860;28;20076;-48
2023/12/12 02:53:45;;;;;;;3.43;0.30;;;;;;;;;;4986878;28;20791;-48
2023/12/12 02:56:14;;;;;;;4.22;0.43;;;;;;;;;;5001593;28;20124;-47
2023/12/12 02:58:42;;;;;;;4.30;0.50;;;;;;;;;;4992811;28;22456;-49
2023/12/12 03:01:13;;;;;;;3.92;0.40;;;;;;;;;;4982744;28;20526;-48
2023/12/12 03:03:41;;;;;;;3.97;0.52;;;;;;;;;;4998844;28;20033;-50
2023/12/12 03:06:09;;;;;;;2.53;0.30;;;;;;;;;;4991528;28;20132;-50
2023/12/12 03:08:36;;;;;;;4.65;0.40;;;;;;;;;;4991947;28;20407;-50
2023/12/12 03:11:04;;;;;;;4.85;0.70;;;;;;;;;;4996231;28;20448;-50
2023/12/12 03:13:35;;;;;;;4.50;0.52;;;;;;;;;;4999316;28;20045;-49
2023/12/12 03:16:05;;;;;;;4.60;0.50;;;;;;;;;;5003646;28;20127;-50
2023/12/12 03:18:32;;;;;;;3.27;0.30;;;;;;;;;;4995653;28;20407;-51
2023/12/12 03:21:00;;;;;;;4.25;0.60;;;;;;;;;;4995544;28;20052;-49
2023/12/12 03:23:28;;;;;;;3.55;0.50;;;;;;;;;;4981263;28;20144;-50
2023/12/12 03:25:55;;;;;;;3.50;0.60;;;;;;;;;;4993549;28;20046;-47
2023/12/12 03:28:22;;;;;;;5.90;0.43;;;;;;;;;;5002180;28;20450;-49
2023/12/12 03:30:55;;;;;;;4.77;0.60;;;;;;;;;;4987636;28;20494;-49
2023/12/12 03:33:22;;;;;;;5.45;0.73;;;;;;;;;;4979870;28;21269;-48
2023/12/12 03:35:50;;;;;;;2.88;0.50;;;;;;;;;;4995317;28;20045;-48
2023/12/12 03:38:18;;;;;;;5.13;0.95;;;;;;;;;;5001038;28;20046;-49
2023/12/12 03:40:48;;;;;;;4.38;0.70;;;;;;;;;;4982050;28;20034;-48
2023/12/12 03:43:15;;;;;;;4.80;0.87;;;;;;;;;;4990072;28;20053;-49
2023/12/12 03:45:43;;;;;;;5.22;0.70;;;;;;;;;;5000528;28;20049;-51
2023/12/12 03:48:12;;;;;;;5.63;0.70;;;;;;;;;;4987585;28;20037;-51
2023/12/12 03:50:40;;;;;;;5.72;0.47;;;;;;;;;;4991410;28;20056;-48
2023/12/12 03:53:07;;;;;;;3.90;0.50;;;;;;;;;;4992273;28;20045;-51
2023/12/12 03:55:36;;;;;;;5.63;0.40;;;;;;;;;;5003119;28;20042;-47
2023/12/12 03:58:05;;;;;;;6.32;0.50;;;;;;;;;;4985237;28;20044;-47
2023/12/12 04:00:33;;;;;;;5.32;0.63;;;;;;;;;;4976538;28;20045;-47
2023/12/12 04:03:02;;;;;;;4.05;0.40;;;;;;;;;;4998505;28;20057;-53
2023/12/12 04:05:31;;;;;;;7.32;0.85;;;;;;;;;;4995090;28;20621;-48
2023/12/12 04:07:59;;;;;;;4.20;0.50;;;;;;;;;;4991628;28;20080;-49
2023/12/12 04:10:30;;;;;;;6.60;0.40;;;;;;;;;;4962909;28;20369;-48
2023/12/12 04:12:58;;;;;;;5.53;0.50;;;;;;;;;;4994466;28;20038;-53
2023/12/12 04:15:26;;;;;;;5.03;0.70;;;;;;;;;;4990146;28;20091;-49
2023/12/12 04:17:54;;;;;;;5.72;0.60;;;;;;;;;;5004892;28;20060;-50
2023/12/12 04:20:21;;;;;;;4.00;0.47;;;;;;;;;;4984174;28;20037;-48
2023/12/12 04:22:51;;;;;;;5.57;0.60;;;;;;;;;;4989531;28;20044;-50
2023/12/12 04:25:19;;;;;;;7.10;0.50;;;;;;;;;;4977691;28;20040;-47
2023/12/12 04:27:47;;;;;;;5.18;0.30;;;;;;;;;;4989247;28;20140;-47
2023/12/12 04:30:16;;;;;;;4.38;0.60;;;;;;;;;;4986333;28;20041;-48
2023/12/12 04:32:44;;;;;;;2.63;0.53;;;;;;;;;;4988189;28;20045;-47
2023/12/12 04:35:11;;;;;;;3.60;0.40;;;;;;;;;;5000765;28;20129;-49
2023/12/12 04:37:39;;;;;;;3.78;0.55;;;;;;;;;;5002122;28;20115;-50
2023/12/12 04:40:09;;;;;;;3.85;0.50;;;;;;;;;;4988711;28;20068;-47
2023/12/12 04:42:37;;;;;;;2.17;0.30;;;;;;;;;;4986542;28;20038;-52
2023/12/12 04:45:08;;;;;;;5.93;0.40;;;;;;;;;;4996438;28;20038;-49
2023/12/12 04:47:37;;;;;;;5.13;0.43;;;;;;;;;;5005205;28;20040;-50
2023/12/12 04:50:05;;;;;;;4.18;0.50;;;;;;;;;;4986162;28;20272;-47
2023/12/12 04:52:33;;;;;;;3.58;0.38;;;;;;;;;;4997669;28;20749;-50
2023/12/12 04:55:01;;;;;;;5.05;0.60;;;;;;;;;;4991201;28;21239;-53
2023/12/12 04:57:30;;;;;;;8.17;0.30;;;;;;;;;;4997365;28;20578;-50
2023/12/12 04:59:58;;;;;;;3.53;0.32;;;;;;;;;;4984625;28;20646;-49
2023/12/12 05:02:26;;;;;;;4.00;0.40;;;;;;;;;;4997675;28;20455;-49
2023/12/12 05:04:53;;;;;;;5.90;0.50;;;;;;;;;;4992560;28;20058;-47
2023/12/12 05:07:21;;;;;;;5.78;0.65;;;;;;;;;;4989714;28;20495;-50
2023/12/12 05:09:49;;;;;;;5.10;0.50;;;;;;;;;;4996617;28;20148;-47
2023/12/12 05:12:17;;;;;;;5.72;0.43;;;;;;;;;;4994607;28;20049;-50
2023/12/12 05:14:46;;;;;;;8.93;0.50;;;;;;;;;;4996165;28;20038;-48
2023/12/12 05:17:13;;;;;;;6.90;0.60;;;;;;;;;;4993605;28;20041;-50
2023/12/12 05:19:42;;;;;;;6.10;0.43;;;;;;;;;;4991677;28;20041;-52
2023/12/12 05:22:10;;;;;;;6.37;0.60;;;;;;;;;;4990728;28;20065;-49
2023/12/12 05:24:38;;;;;;;5.05;0.70;;;;;;;;;;4993188;28;20041;-51
2023/12/12 05:27:05;;;;;;;7.18;0.50;;;;;;;;;;4998318;28;20051;-49
2023/12/12 05:29:33;;;;;;;5.63;0.93;;;;;;;;;;4984327;28;20049;-48
2023/12/12 05:32:02;;;;;;;11.02;1.15;;;;;;;;;;4993472;28;20037;-52
2023/12/12 05:34:30;;;;;;;8.37;0.60;;;;;;;;;;4992916;28;20041;-52
2023/12/12 05:36:59;;;;;;;12.00;1.23;;;;;;;;;;5009874;28;20463;-49
2023/12/12 05:39:27;;;;;;;13.68;1.00;;;;;;;;;;4975882;28;20045;-48
2023/12/12 05:41:54;;;;;;;8.70;1.00;;;;;;;;;;5002166;28;20053;-49
2023/12/12 05:44:23;;;;;;;8.48;0.90;;;;;;;;;;4989231;28;20033;-51
2023/12/12 05:46:51;;;;;;;8.57;1.13;;;;;;;;;;5020368;28;20995;-52
2023/12/12 05:49:21;;;;;;;13.35;1.27;;;;;;;;;;4966841;28;20033;-49
2023/12/12 05:51:49;;;;;;;12.95;1.00;;;;;;;;;;4987703;28;20519;-51
2023/12/12 05:54:17;;;;;;;8.27;0.93;;;;;;;;;;4983289;28;20061;-50
2023/12/12 05:56:45;;;;;;;11.48;1.33;;;;;;;;;;5003574;28;20478;-48
2023/12/12 05:59:14;;;;;;;11.97;0.87;;;;;;;;;;4956106;28;20180;-48
2023/12/12 06:01:42;;;;;;;9.07;1.20;;;;;;;;;;4992286;28;20520;-48
2023/12/12 06:04:12;;;;;;;17.75;2.22;;;;;;;;;;4985981;28;20479;-53
2023/12/12 06:06:44;;;;;;;12.02;1.40;;;;;;;;;;4989093;28;20139;-49
2023/12/12 06:09:16;;;;;;;12.77;1.88;;;;;;;;;;4988577;28;20505;-50
2023/12/12 06:11:44;;;;;;;14.53;2.70;;;;;;;;;;4990202;28;20038;-47
2023/12/12 06:14:13;;;;;;;11.95;1.10;;;;;;;;;;4974908;28;20882;-51
2023/12/12 06:16:40;;;;;;;15.52;1.80;;;;;;;;;;4987977;28;20053;-51
2023/12/12 06:19:08;;;;;;;11.45;1.73;;;;;;;;;;4988578;28;20132;-51
2023/12/12 06:21:36;;;;;;;17.50;2.60;;;;;;;;;;4982883;28;20179;-47
2023/12/12 06:24:07;;;;;;;16.33;1.50;;;;;;;;;;4999214;28;20045;-51
2023/12/12 06:26:37;;;;;;;15.50;1.95;;;;;;;;;;4979266;28;20505;-50
2023/12/12 06:29:07;;;;;;;14.57;1.75;;;;;;;;;;4996104;28;20045;-47
2023/12/12 06:31:35;;;;;;;17.00;2.25;;;;;;;;;;4973420;28;20041;-48
2023/12/12 06:34:05;;;;;;;13.52;1.67;;;;;;;;;;4994277;28;20045;-49
2023/12/12 06:36:36;;;;;;;14.97;1.87;;;;;;;;;;4988095;28;20041;-50
2023/12/12 06:39:07;;;;;;;24.83;2.20;;;;;;;;;;4992360;28;20506;-47
2023/12/12 06:41:43;;;;;;;21.92;2.15;;;;;;;;;;4987615;28;20042;-48
2023/12/12 06:44:12;;;;;;;19.88;2.10;;;;;;;;;;4990146;28;20120;-49
2023/12/12 06:46:41;;;;;;;20.33;3.47;;;;;;;;;;4992738;28;20045;-47
2023/12/12 06:49:10;;;;;;;17.07;2.10;;;;;;;;;;4983297;28;20042;-49
2023/12/12 06:51:38;;;;;;;21.63;1.95;;;;;;;;;;4978049;28;20513;-50
2023/12/12 06:54:07;;;;;;;19.52;2.47;;;;;;;;;;4984838;28;20111;-49
2023/12/12 06:56:35;;;;;;;15.25;2.03;;;;;;;;;;4986470;28;20037;-48
2023/12/12 06:59:05;;;;;;;17.38;1.70;;;;;;;;;;4981591;28;20042;-49
2023/12/12 07:01:33;;;;;;;16.13;2.00;;;;;;;;;;4981040;28;20056;-53
2023/12/12 07:04:02;;;;;;;25.75;2.83;;;;;;;;;;4994632;28;20033;-51
2023/12/12 07:06:29;;;;;;;16.05;2.25;;;;;;;;;;4978682;28;20481;-48
2023/12/12 07:08:57;;;;;;;21.05;2.10;;;;;;;;;;4994950;28;20854;-52
2023/12/12 07:11:27;;;;;;;18.10;2.15;;;;;;;;;;4990501;28;20482;-50
2023/12/12 07:13:55;;;;;;;27.13;2.27;;;;;;;;;;4987096;28;20053;-48
2023/12/12 07:16:23;;;;;;;27.65;2.50;;;;;;;;;;4982718;28;20132;-49
2023/12/12 07:18:53;;;;;;;25.38;2.47;;;;;;;;;;4988782;28;20492;-48
2023/12/12 07:21:23;;;;;;;23.63;1.67;;;;;;;;;;4966999;28;20037;-48
2023/12/12 07:23:51;;;;;;;19.63;2.67;;;;;;;;;;4994209;28;20042;-49
2023/12/12 07:26:21;;;;;;;23.37;2.60;;;;;;;;;;4971014;28;20360;-47
2023/12/12 07:28:50;;;;;;;21.63;2.42;;;;;;;;;;4990897;28;20037;-49
2023/12/12 07:31:18;;;;;;;22.23;2.10;;;;;;;;;;4980779;28;20434;-51
2023/12/12 07:33:46;;;;;;;29.17;1.73;;;;;;;;;;4973927;28;20531;-50
2023/12/12 07:36:14;;;;;;;24.13;2.17;;;;;;;;;;4970621;28;20073;-52
2023/12/12 07:38:43;;;;;;;17.87;2.40;;;;;;;;;;4996628;28;20045;-49
2023/12/12 07:41:12;;;;;;;19.17;2.22;;;;;;;;;;4973997;28;20042;-51
2023/12/12 07:43:41;;;;;;;19.83;2.25;;;;;;;;;;4972198;28;20037;-52
2023/12/12 07:46:11;;;;;;;25.48;2.85;;;;;;;;;;4989203;28;20061;-48
2023/12/12 07:48:40;;;;;;;28.35;2.20;;;;;;;;;;4975209;28;20033;-49
2023/12/12 07:51:08;;;;;;;23.60;2.47;;;;;;;;;;4986057;28;20049;-50
2023/12/12 07:53:36;;;;;;;29.58;2.70;;;;;;;;;;4954796;28;20045;-48
2023/12/12 07:56:04;;;;;;;21.00;2.85;;;;;;;;;;4981387;28;20057;-51
2023/12/12 07:58:32;;;;;;;23.10;3.38;;;;;;;;;;4983198;28;20044;-50
2023/12/12 08:00:59;;;;;;;35.45;3.13;;;;;;;;;;4994133;28;20137;-50
2023/12/12 08:03:29;;;;;;;23.17;2.27;;;;;;;;;;4974923;28;20092;-48
2023/12/12 08:05:57;;;;;;;20.15;2.35;;;;;;;;;;4985142;28;20045;-48
2023/12/12 08:08:25;;;;;;;23.55;3.08;;;;;;;;;;4991731;28;20037;-49
2023/12/12 08:10:53;;;;;;;23.48;2.83;;;;;;;;;;4975850;28;20107;-52
2023/12/12 08:13:21;;;;;;;29.10;2.80;;;;;;;;;;4981057;28;20041;-49
2023/12/12 08:15:48;;;;;;;18.73;2.37;;;;;;;;;;4980918;28;20088;-51
2023/12/12 08:18:16;;;;;;;23.27;2.42;;;;;;;;;;4981492;28;20037;-48
2023/12/12 08:20:45;;;;;;;22.25;2.35;;;;;;;;;;4991715;28;20054;-51
2023/12/12 08:23:13;;;;;;;18.05;2.30;;;;;;;;;;4982080;28;20435;-53
2023/12/12 08:25:41;;;;;;;19.17;2.28;;;;;;;;;;4999743;28;20047;-48
2023/12/12 08:28:09;;;;;;;23.20;3.47;;;;;;;;;;4625423;28;9999840;-51
2023/12/12 08:30:37;;;;;;;24.45;2.60;;;;;;;;;;4991006;28;20045;-49
2023/12/12 08:33:05;;;;;;;24.95;3.33;;;;;;;;;;4956917;28;20041;-49
2023/12/12 08:35:33;;;;;;;30.55;2.33;;;;;;;;;;4995138;28;20120;-48
2023/12/12 08:38:20;;;;;;;26.60;2.70;;;;;;;;;;4969141;28;20435;-47
2023/12/12 08:40:48;;;;;;;33.30;2.97;;;;;;;;;;4974647;28;20058;-47
2023/12/12 08:43:17;;;;;;;27.10;3.45;;;;;;;;;;4984352;28;20503;-51
2023/12/12 08:45:44;;;;;;;22.25;1.90;;;;;;;;;;4981272;28;20073;-48
2023/12/12 08:48:13;;;;;;;30.23;2.50;;;;;;;;;;4979365;28;20120;-48
2023/12/12 08:50:41;;;;;;;27.93;3.40;;;;;;;;;;4980959;28;20343;-48
2023/12/12 08:53:09;;;;;;;25.65;3.45;;;;;;;;;;4975416;28;20056;-47
2023/12/12 08:55:38;;;;;;;26.10;3.30;;;;;;;;;;4987044;28;20057;-50
2023/12/12 08:58:06;;;;;;;26.55;2.83;;;;;;;;;;4968316;28;20540;-48
2023/12/12 09:00:35;;;;;;;33.35;2.92;;;;;;;;;;4984577;28;20797;-49
2023/12/12 09:03:02;;;;;;;30.07;4.13;;;;;;;;;;4637319;28;10000159;-47
2023/12/12 09:05:30;;;;;;;33.42;3.03;;;;;;;;;;4967465;28;20056;-47
2023/12/12 09:07:58;;;;;;;15.00;2.08;;;;;;;;;;4968280;28;20049;-50
2023/12/12 09:10:26;;;;;;;27.48;2.95;;;;;;;;;;4946000;28;20040;-49
2023/12/12 09:12:55;;;;;;;37.75;2.90;;;;;;;;;;4957870;28;20649;-48
2023/12/12 09:15:23;;;;;;;26.40;3.53;;;;;;;;;;4953533;28;20047;-49
2023/12/12 09:17:52;;;;;;;24.33;2.67;;;;;;;;;;4981212;28;20538;-48
2023/12/12 09:20:40;;;;;;;27.88;2.95;;;;;;;;;;4979697;28;20048;-49
2023/12/12 09:23:08;;;;;;;25.85;2.67;;;;;;;;;;4956422;28;20662;-52
2023/12/12 09:25:36;;;;;;;28.23;3.20;;;;;;;;;;4998155;28;20045;-49
2023/12/12 09:28:06;;;;;;;25.00;4.23;;;;;;;;;;4987173;28;20392;-49
2023/12/12 09:30:33;;;;;;;17.92;2.30;;;;;;;;;;4974453;28;20045;-47
2023/12/12 09:33:04;;;;;;;23.98;2.95;;;;;;;;;;4990650;28;20131;-50
2023/12/12 09:35:35;;;;;;;30.15;2.65;;;;;;;;;;4996561;28;20041;-48
2023/12/12 09:38:03;;;;;;;25.90;3.15;;;;;;;;;;4976177;28;20198;-49
2023/12/12 09:40:31;;;;;;;22.60;2.97;;;;;;;;;;4998959;28;20072;-48
2023/12/12 09:43:00;;;;;;;31.88;3.80;;;;;;;;;;4981791;28;20047;-49
2023/12/12 09:45:31;;;;;;;24.45;2.72;;;;;;;;;;4997748;28;20082;-48
2023/12/12 09:48:00;;;;;;;44.15;4.07;;;;;;;;;;4956173;28;20056;-52
2023/12/12 09:50:28;;;;;;;31.55;3.72;;;;;;;;;;4990045;28;20138;-50
2023/12/12 09:52:57;;;;;;;21.50;2.70;;;;;;;;;;4971622;28;20042;-50
2023/12/12 09:55:26;;;;;;;26.75;2.95;;;;;;;;;;4985822;28;20046;-48
2023/12/12 09:57:53;;;;;;;25.75;2.78;;;;;;;;;;4980277;28;20050;-50
2023/12/12 10:00:22;;;;;;;39.13;3.60;;;;;;;;;;4989123;28;20063;-54
2023/12/12 10:02:55;;;;;;;30.65;3.58;;;;;;;;;;4971180;28;20037;-50
2023/12/12 10:05:48;;;;;;;25.27;3.03;;;;;;;;;;4980694;28;20051;-48
2023/12/12 10:08:18;;;;;;;25.65;3.58;;;;;;;;;;4997832;28;20046;-51
2023/12/12 10:10:45;;;;;;;27.05;4.38;;;;;;;;;;4983911;28;20124;-50
2023/12/12 10:13:14;;;;;;;24.05;2.80;;;;;;;;;;4975236;28;20112;-49
2023/12/12 10:15:41;;;;;;;25.58;3.63;;;;;;;;;;4977156;28;20042;-47
2023/12/12 10:18:11;;;;;;;23.37;3.20;;;;;;;;;;4991363;28;20049;-51
2023/12/12 10:20:38;;;;;;;26.23;2.95;;;;;;;;;;4992742;28;20057;-49
2023/12/12 10:23:06;;;;;;;30.52;2.83;;;;;;;;;;4986939;28;20041;-52
2023/12/12 10:25:35;;;;;;;30.17;2.78;;;;;;;;;;4984069;28;20052;-52
2023/12/12 10:28:03;;;;;;;31.33;3.58;;;;;;;;;;4981107;28;20120;-48
2023/12/12 10:30:32;;;;;;;26.93;3.43;;;;;;;;;;4988318;28;20041;-47
2023/12/12 10:33:00;;;;;;;26.52;4.00;;;;;;;;;;4983277;28;20056;-48
2023/12/12 10:35:31;;;;;;;31.92;3.30;;;;;;;;;;4990274;28;20650;-49
2023/12/12 10:38:06;;;;;;;25.77;3.47;;;;;;;;;;4984856;28;20128;-46
2023/12/12 10:40:35;;;;;;;37.03;5.32;;;;;;;;;;4973681;28;20045;-48
2023/12/12 10:43:04;;;;;;;26.70;3.57;;;;;;;;;;4977677;28;20073;-52
2023/12/12 10:45:32;;;;;;;25.77;3.45;;;;;;;;;;4993352;28;20480;-47
2023/12/12 10:48:01;;;;;;;29.02;4.00;;;;;;;;;;4981089;28;20766;-48
2023/12/12 10:50:33;;;;;;;32.58;4.03;;;;;;;;;;4987629;28;20052;-52
2023/12/12 10:53:03;;;;;;;19.17;3.50;;;;;;;;;;4983842;28;20060;-49
2023/12/12 10:55:31;;;;;;;25.13;3.97;;;;;;;;;;4982045;28;20057;-49
2023/12/12 10:57:59;;;;;;;28.77;4.05;;;;;;;;;;4986067;28;20622;-51
2023/12/12 11:00:28;;;;;;;26.92;3.83;;;;;;;;;;4976716;28;20053;-48
2023/12/12 11:03:00;;;;;;;20.35;3.20;;;;;;;;;;4982839;28;20095;-49
2023/12/12 11:05:28;;;;;;;23.77;2.20;;;;;;;;;;4643309;28;10000184;-46
2023/12/12 11:07:59;;;;;;;17.05;2.90;;;;;;;;;;4991851;28;20089;-49
2023/12/12 11:10:26;;;;;;;23.80;2.15;;;;;;;;;;4983464;28;20052;-47
2023/12/12 11:12:56;;;;;;;24.48;2.28;;;;;;;;;;4991143;28;20900;-47
2023/12/12 11:15:25;;;;;;;23.77;2.13;;;;;;;;;;4978842;28;20057;-49
2023/12/12 11:17:53;;;;;;;18.60;2.00;;;;;;;;;;5007944;28;20045;-47
2023/12/12 11:20:22;;;;;;;17.58;2.75;;;;;;;;;;4984442;28;20638;-48
2023/12/12 11:22:51;;;;;;;29.33;2.67;;;;;;;;;;4990723;28;20048;-49
2023/12/12 11:25:21;;;;;;;18.20;1.73;;;;;;;;;;4985283;28;20033;-51
2023/12/12 11:27:52;;;;;;;27.53;2.43;;;;;;;;;;4970854;28;20038;-48
2023/12/12 11:30:20;;;;;;;13.98;1.23;;;;;;;;;;4972831;28;20037;-49
2023/12/12 11:32:48;;;;;;;25.55;3.40;;;;;;;;;;4986796;28;20854;-47
2023/12/12 11:35:28;;;;;;;20.50;2.20;;;;;;;;;;4974548;28;20118;-50
2023/12/12 11:38:06;;;;;;;25.15;3.28;;;;;;;;;;4978058;28;20510;-50
2023/12/12 11:40:37;;;;;;;19.13;2.13;;;;;;;;;;4974901;28;20049;-49
2023/12/12 11:43:23;;;;;;;25.33;3.95;;;;;;;;;;4989533;28;20041;-50
2023/12/12 11:45:52;;;;;;;17.30;3.33;;;;;;;;;;4985423;28;20061;-51
2023/12/12 11:48:20;;;;;;;21.92;3.10;;;;;;;;;;4984458;28;20038;-51
2023/12/12 11:50:52;;;;;;;16.42;2.95;;;;;;;;;;4956448;28;20068;-50
2023/12/12 11:53:35;;;;;;;22.93;2.77;;;;;;;;;;4963614;28;20068;-46
2023/12/12 11:56:04;;;;;;;17.60;2.78;;;;;;;;;;4984375;28;20507;-47
2023/12/12 11:58:32;;;;;;;22.50;2.65;;;;;;;;;;4981630;28;20046;-46
2023/12/12 12:01:00;;;;;;;15.88;1.55;;;;;;;;;;4978653;28;20045;-46
2023/12/12 12:03:27;;;;;;;21.60;2.10;;;;;;;;;;4957856;28;20579;-48
2023/12/12 12:05:55;;;;;;;21.73;2.03;;;;;;;;;;4988165;28;20037;-49
2023/12/12 12:08:23;;;;;;;21.35;2.25;;;;;;;;;;4989293;28;20099;-51
2023/12/12 12:10:57;;;;;;;18.52;1.58;;;;;;;;;;4984659;28;20131;-49
2023/12/12 12:13:37;;;;;;;24.02;2.15;;;;;;;;;;4973555;28;20033;-47
2023/12/12 12:16:06;;;;;;;19.25;2.22;;;;;;;;;;4978922;28;20064;-49
2023/12/12 12:18:34;;;;;;;22.80;2.87;;;;;;;;;;4964384;28;20411;-47
2023/12/12 12:21:03;;;;;;;22.48;2.35;;;;;;;;;;4996902;28;20887;-49
2023/12/12 12:23:32;;;;;;;20.92;3.30;;;;;;;;;;4617923;28;10000268;-48
2023/12/12 12:26:00;;;;;;;22.33;3.95;;;;;;;;;;4977149;28;20763;-45
2023/12/12 12:28:32;;;;;;;20.98;2.72;;;;;;;;;;4950430;28;20288;-47
2023/12/12 12:31:00;;;;;;;18.15;3.40;;;;;;;;;;4968846;28;21035;-46
2023/12/12 12:33:31;;;;;;;25.03;3.97;;;;;;;;;;4979321;28;20045;-47
2023/12/12 12:35:59;;;;;;;18.77;2.85;;;;;;;;;;4964406;28;20048;-46
2023/12/12 12:38:27;;;;;;;15.77;2.08;;;;;;;;;;4983011;28;20518;-48
2023/12/12 12:40:54;;;;;;;12.35;1.88;;;;;;;;;;4960592;28;20053;-48
2023/12/12 12:43:23;;;;;;;11.93;1.70;;;;;;;;;;4989120;28;20543;-46
2023/12/12 12:45:53;;;;;;;13.97;3.03;;;;;;;;;;4965620;28;20262;-46
2023/12/12 12:48:25;;;;;;;11.18;1.38;;;;;;;;;;4984194;28;20065;-49
2023/12/12 12:50:56;;;;;;;11.57;1.40;;;;;;;;;;4973462;28;20049;-46
2023/12/12 12:53:25;;;;;;;12.23;1.60;;;;;;;;;;4973663;28;20046;-46
2023/12/12 12:55:53;;;;;;;11.73;1.75;;;;;;;;;;4978922;28;20135;-47
2023/12/12 12:58:21;;;;;;;8.70;1.30;;;;;;;;;;4971488;28;20906;-45
2023/12/12 13:00:52;;;;;;;12.50;1.52;;;;;;;;;;4981258;28;20069;-45
2023/12/12 13:03:20;;;;;;;11.80;1.25;;;;;;;;;;4971058;28;20037;-48
2023/12/12 13:05:48;;;;;;;9.52;1.25;;;;;;;;;;4991357;28;20107;-48
2023/12/12 13:08:17;;;;;;;9.30;1.55;;;;;;;;;;4983327;28;20109;-48
2023/12/12 13:10:44;;;;;;;9.50;1.30;;;;;;;;;;4988962;28;20041;-49
2023/12/12 13:13:18;;;;;;;10.02;1.20;;;;;;;;;;4274569;28;10000073;-50
2023/12/12 13:15:46;;;;;;;8.20;1.48;;;;;;;;;;4974169;28;20053;-51
2023/12/12 13:18:17;;;;;;;13.68;1.80;;;;;;;;;;4982592;28;20841;-50
2023/12/12 13:20:45;;;;;;;10.52;1.38;;;;;;;;;;4977437;28;20047;-54
2023/12/12 13:23:13;;;;;;;10.70;1.40;;;;;;;;;;4969096;28;20419;-53
2023/12/12 13:25:41;;;;;;;9.20;1.17;;;;;;;;;;4988386;28;20060;-49
2023/12/12 13:28:09;;;;;;;4.85;0.60;;;;;;;;;;4972937;28;20150;-51
2023/12/12 13:30:37;;;;;;;10.20;0.75;;;;;;;;;;4994148;28;20510;-49
2023/12/12 13:33:09;;;;;;;6.85;0.50;;;;;;;;;;4961161;28;20037;-54
2023/12/12 13:35:39;;;;;;;8.87;0.70;;;;;;;;;;4998907;28;20041;-51
2023/12/12 13:38:06;;;;;;;6.53;0.70;;;;;;;;;;4971614;28;20120;-48
2023/12/12 13:40:35;;;;;;;4.38;0.50;;;;;;;;;;4991739;28;20033;-51
2023/12/12 13:43:03;;;;;;;4.90;0.75;;;;;;;;;;4967523;28;20193;-53
2023/12/12 13:45:31;;;;;;;4.45;0.50;;;;;;;;;;4997936;28;20131;-51
2023/12/12 13:47:59;;;;;;;7.70;0.70;;;;;;;;;;4971008;28;20045;-46
2023/12/12 13:50:29;;;;;;;6.82;0.77;;;;;;;;;;4992551;28;20045;-50
2023/12/12 13:52:59;;;;;;;9.00;0.75;;;;;;;;;;4986923;28;20112;-53
2023/12/12 13:55:27;;;;;;;3.55;0.50;;;;;;;;;;4993044;28;20745;-50
2023/12/12 13:57:54;;;;;;;5.63;0.90;;;;;;;;;;4994032;28;20041;-51
2023/12/12 14:00:25;;;;;;;4.53;0.53;;;;;;;;;;4982567;28;20404;-51
2023/12/12 14:02:52;;;;;;;9.20;0.77;;;;;;;;;;4993396;28;20136;-48
2023/12/12 14:05:20;;;;;;;7.05;0.90;;;;;;;;;;4993396;28;20037;-53
2023/12/12 14:07:49;;;;;;;5.43;0.70;;;;;;;;;;4984341;28;20165;-47
2023/12/12 14:10:18;;;;;;;6.05;0.70;;;;;;;;;;4977410;28;20119;-55
2023/12/12 14:12:46;;;;;;;7.90;0.97;;;;;;;;;;4987802;28;20041;-50
2023/12/12 14:15:23;;;;;;;6.40;0.70;;;;;;;;;;4995450;28;20037;-52
2023/12/12 14:17:50;;;;;;;4.53;0.70;;;;;;;;;;5004186;28;20056;-49
2023/12/12 14:20:19;;;;;;;6.90;0.65;;;;;;;;;;4976111;28;20052;-50
2023/12/12 14:22:46;;;;;;;7.82;1.20;;;;;;;;;;4984392;28;20041;-50
2023/12/12 14:25:31;;;;;;;7.57;0.53;;;;;;;;;;4984331;28;20610;-54
2023/12/12 14:28:00;;;;;;;5.00;0.50;;;;;;;;;;4976459;28;20037;-48
2023/12/12 14:30:28;;;;;;;6.40;0.60;;;;;;;;;;4994904;28;20037;-48
2023/12/12 14:32:57;;;;;;;7.93;0.88;;;;;;;;;;4999897;28;20030;-48
2023/12/12 14:35:26;;;;;;;7.68;0.90;;;;;;;;;;4962007;28;20048;-47
2023/12/12 14:37:54;;;;;;;7.43;1.30;;;;;;;;;;4966657;28;20103;-50
2023/12/12 14:40:21;;;;;;;4.53;0.70;;;;;;;;;;4970058;28;20041;-48
2023/12/12 14:42:50;;;;;;;4.70;0.50;;;;;;;;;;4963628;28;20042;-48